Aviation Digital Data Service (ADDS)

Output produced by METARs form (0206 UTC 29 May 2022)
found at http://www.aviationweather.gov/metar/data/
 
METAR text: RJOT 290200Z 31005KT 250V020 CAVOK 28/10 Q1008
Conditions at: RJOT (TAKAMATSU AIRPOR, JP) observed 0200 UTC 29 May 2022
Temperature: 28.0°C (82°F)
Dewpoint: 10.0°C (50°F) [RH = 32%]
Pressure (altimeter): 29.76 inches Hg (1008.0 mb)
Winds: from the NW (310 degrees) at 6 MPH (5 knots; 2.6 m/s)
Visibility: 6 or more miles (10+ km)
Ceiling: ceiling and visibility are OK
Clouds: unknown
Weather: no significant weather observed at this time

METAR text: RJOT 290100Z 33005KT 280V030 CAVOK 26/10 Q1008
Conditions at: RJOT (TAKAMATSU AIRPOR, JP) observed 0100 UTC 29 May 2022
Temperature: 26.0°C (79°F)
Dewpoint: 10.0°C (50°F) [RH = 37%]
Pressure (altimeter): 29.76 inches Hg (1008.0 mb)
Winds: from the NNW (330 degrees) at 6 MPH (5 knots; 2.6 m/s)
Visibility: 6 or more miles (10+ km)
Ceiling: ceiling and visibility are OK
Clouds: unknown
Weather: no significant weather observed at this time

METAR text: RJOT 290000Z 28006KT CAVOK 25/11 Q1008
Conditions at: RJOT (TAKAMATSU AIRPOR, JP) observed 0000 UTC 29 May 2022
Temperature: 25.0°C (77°F)
Dewpoint: 11.0°C (52°F) [RH = 41%]
Pressure (altimeter): 29.76 inches Hg (1008.0 mb)
Winds: from the W (280 degrees) at 7 MPH (6 knots; 3.1 m/s)
Visibility: 6 or more miles (10+ km)
Ceiling: ceiling and visibility are OK
Clouds: unknown
Weather: no significant weather observed at this time

METAR text: RJOT 282300Z 28005KT CAVOK 23/10 Q1009
Conditions at: RJOT (TAKAMATSU AIRPOR, JP) observed 2300 UTC 28 May 2022
Temperature: 23.0°C (73°F)
Dewpoint: 10.0°C (50°F) [RH = 44%]
Pressure (altimeter): 29.79 inches Hg (1009.0 mb)
Winds: from the W (280 degrees) at 6 MPH (5 knots; 2.6 m/s)
Visibility: 6 or more miles (10+ km)
Ceiling: ceiling and visibility are OK
Clouds: unknown
Weather: no significant weather observed at this time

METAR text: RJOT 282200Z 23005KT CAVOK 20/09 Q1009
Conditions at: RJOT (TAKAMATSU AIRPOR, JP) observed 2200 UTC 28 May 2022
Temperature: 20.0°C (68°F)
Dewpoint: 9.0°C (48°F) [RH = 49%]
Pressure (altimeter): 29.79 inches Hg (1009.0 mb)
Winds: from the SW (230 degrees) at 6 MPH (5 knots; 2.6 m/s)
Visibility: 6 or more miles (10+ km)
Ceiling: ceiling and visibility are OK
Clouds: unknown
Weather: no significant weather observed at this time

METAR text: RJOT 282120Z VRB01KT 9999 FEW050 BKN/// 18/08 Q1009 RMK 1SC050 A2980
Conditions at: RJOT (TAKAMATSU AIRPOR, JP) observed 2120 UTC 28 May 2022
Temperature: 18.0°C (64°F)
Dewpoint: 8.0°C (46°F) [RH = 52%]
Pressure (altimeter): 29.79 inches Hg (1009.0 mb)
Winds: variable direction winds at 1 MPH (1 knots; 0.5 m/s)
Visibility: 6 or more miles (10+ km)
Ceiling: at least 12,000 feet AGL
Clouds: few clouds at 5000 feet AGL
Weather: no significant weather observed at this time

METAR text: RJOT 281200Z 23009KT 9999 FEW025 BKN/// 20/12 Q1008
Conditions at: RJOT (TAKAMATSU AIRPOR, JP) observed 1200 UTC 28 May 2022
Temperature: 20.0°C (68°F)
Dewpoint: 12.0°C (54°F) [RH = 60%]
Pressure (altimeter): 29.76 inches Hg (1008.0 mb)
Winds: from the SW (230 degrees) at 10 MPH (9 knots; 4.6 m/s)
Visibility: 6 or more miles (10+ km)
Ceiling: at least 12,000 feet AGL
Clouds: few clouds at 2500 feet AGL
Weather: no significant weather observed at this time

METAR text: RJOT 281100Z 24006KT 9999 FEW025 BKN/// 20/12 Q1007
Conditions at: RJOT (TAKAMATSU AIRPOR, JP) observed 1100 UTC 28 May 2022
Temperature: 20.0°C (68°F)
Dewpoint: 12.0°C (54°F) [RH = 60%]
Pressure (altimeter): 29.73 inches Hg (1007.0 mb)
Winds: from the WSW (240 degrees) at 7 MPH (6 knots; 3.1 m/s)
Visibility: 6 or more miles (10+ km)
Ceiling: at least 12,000 feet AGL
Clouds: few clouds at 2500 feet AGL
Weather: no significant weather observed at this time

METAR text: RJOT 281000Z 24008KT 9999 FEW025 BKN/// 23/11 Q1006
Conditions at: RJOT (TAKAMATSU AIRPOR, JP) observed 1000 UTC 28 May 2022
Temperature: 23.0°C (73°F)
Dewpoint: 11.0°C (52°F) [RH = 47%]
Pressure (altimeter): 29.70 inches Hg (1006.0 mb)
Winds: from the WSW (240 degrees) at 9 MPH (8 knots; 4.1 m/s)
Visibility: 6 or more miles (10+ km)
Ceiling: at least 12,000 feet AGL
Clouds: few clouds at 2500 feet AGL
Weather: no significant weather observed at this time

METAR text: RJOT 280900Z 25009KT 9999 FEW030 BKN/// 26/10 Q1006
Conditions at: RJOT (TAKAMATSU AIRPOR, JP) observed 0900 UTC 28 May 2022
Temperature: 26.0°C (79°F)
Dewpoint: 10.0°C (50°F) [RH = 37%]
Pressure (altimeter): 29.70 inches Hg (1006.0 mb)
Winds: from the WSW (250 degrees) at 10 MPH (9 knots; 4.6 m/s)
Visibility: 6 or more miles (10+ km)
Ceiling: at least 12,000 feet AGL
Clouds: few clouds at 3000 feet AGL
Weather: no significant weather observed at this time

METAR text: RJOT 280800Z 25010KT 9999 FEW030 BKN/// 27/09 Q1006
Conditions at: RJOT (TAKAMATSU AIRPOR, JP) observed 0800 UTC 28 May 2022
Temperature: 27.0°C (81°F)
Dewpoint: 9.0°C (48°F) [RH = 32%]
Pressure (altimeter): 29.70 inches Hg (1006.0 mb)
Winds: from the WSW (250 degrees) at 12 MPH (10 knots; 5.1 m/s)
Visibility: 6 or more miles (10+ km)
Ceiling: at least 12,000 feet AGL
Clouds: few clouds at 3000 feet AGL
Weather: no significant weather observed at this time

METAR text: RJOT 280700Z 25012KT 9999 FEW030 BKN/// 28/09 Q1006
Conditions at: RJOT (TAKAMATSU AIRPOR, JP) observed 0700 UTC 28 May 2022
Temperature: 28.0°C (82°F)
Dewpoint: 9.0°C (48°F) [RH = 30%]
Pressure (altimeter): 29.70 inches Hg (1006.0 mb)
Winds: from the WSW (250 degrees) at 14 MPH (12 knots; 6.2 m/s)
Visibility: 6 or more miles (10+ km)
Ceiling: at least 12,000 feet AGL
Clouds: few clouds at 3000 feet AGL
Weather: no significant weather observed at this time

METAR text: RJOT 280600Z 25012KT 9999 FEW030 BKN/// 27/10 Q1006
Conditions at: RJOT (TAKAMATSU AIRPOR, JP) observed 0600 UTC 28 May 2022
Temperature: 27.0°C (81°F)
Dewpoint: 10.0°C (50°F) [RH = 34%]
Pressure (altimeter): 29.70 inches Hg (1006.0 mb)
Winds: from the WSW (250 degrees) at 14 MPH (12 knots; 6.2 m/s)
Visibility: 6 or more miles (10+ km)
Ceiling: at least 12,000 feet AGL
Clouds: few clouds at 3000 feet AGL
Weather: no significant weather observed at this time

METAR text: RJOT 280500Z 24014KT 9999 FEW030 BKN/// 27/11 Q1006
Conditions at: RJOT (TAKAMATSU AIRPOR, JP) observed 0500 UTC 28 May 2022
Temperature: 27.0°C (81°F)
Dewpoint: 11.0°C (52°F) [RH = 37%]
Pressure (altimeter): 29.70 inches Hg (1006.0 mb)
Winds: from the WSW (240 degrees) at 16 MPH (14 knots; 7.2 m/s)
Visibility: 6 or more miles (10+ km)
Ceiling: at least 12,000 feet AGL
Clouds: few clouds at 3000 feet AGL
Weather: no significant weather observed at this time

METAR text: RJOT 280400Z 25015KT 210V280 9999 FEW030 BKN/// 27/11 Q1006
Conditions at: RJOT (TAKAMATSU AIRPOR, JP) observed 0400 UTC 28 May 2022
Temperature: 27.0°C (81°F)
Dewpoint: 11.0°C (52°F) [RH = 37%]
Pressure (altimeter): 29.70 inches Hg (1006.0 mb)
Winds: from the WSW (250 degrees) at 17 MPH (15 knots; 7.7 m/s)
Visibility: 6 or more miles (10+ km)
Ceiling: at least 12,000 feet AGL
Clouds: few clouds at 3000 feet AGL
Weather: no significant weather observed at this time

METAR text: RJOT 280300Z 26017KT 9999 FEW030 BKN/// 26/11 Q1007
Conditions at: RJOT (TAKAMATSU AIRPOR, JP) observed 0300 UTC 28 May 2022
Temperature: 26.0°C (79°F)
Dewpoint: 11.0°C (52°F) [RH = 39%]
Pressure (altimeter): 29.73 inches Hg (1007.0 mb)
Winds: from the W (260 degrees) at 20 MPH (17 knots; 8.7 m/s)
Visibility: 6 or more miles (10+ km)
Ceiling: at least 12,000 feet AGL
Clouds: few clouds at 3000 feet AGL
Weather: no significant weather observed at this time

METAR text: RJOT 280200Z 27015KT 9999 FEW030 BKN/// 26/12 Q1007
Conditions at: RJOT (TAKAMATSU AIRPOR, JP) observed 0200 UTC 28 May 2022
Temperature: 26.0°C (79°F)
Dewpoint: 12.0°C (54°F) [RH = 42%]
Pressure (altimeter): 29.73 inches Hg (1007.0 mb)
Winds: from the W (270 degrees) at 17 MPH (15 knots; 7.7 m/s)
Visibility: 6 or more miles (10+ km)
Ceiling: at least 12,000 feet AGL
Clouds: few clouds at 3000 feet AGL
Weather: no significant weather observed at this time

METAR text: RJOT 280100Z 25014KT 9999 FEW030 BKN/// 25/14 Q1007
Conditions at: RJOT (TAKAMATSU AIRPOR, JP) observed 0100 UTC 28 May 2022
Temperature: 25.0°C (77°F)
Dewpoint: 14.0°C (57°F) [RH = 50%]
Pressure (altimeter): 29.73 inches Hg (1007.0 mb)
Winds: from the WSW (250 degrees) at 16 MPH (14 knots; 7.2 m/s)
Visibility: 6 or more miles (10+ km)
Ceiling: at least 12,000 feet AGL
Clouds: few clouds at 3000 feet AGL
Weather: no significant weather observed at this time

METAR text: RJOT 280000Z 27012KT 9999 FEW030 BKN/// 24/15 Q1006
Conditions at: RJOT (TAKAMATSU AIRPOR, JP) observed 0000 UTC 28 May 2022
Temperature: 24.0°C (75°F)
Dewpoint: 15.0°C (59°F) [RH = 57%]
Pressure (altimeter): 29.70 inches Hg (1006.0 mb)
Winds: from the W (270 degrees) at 14 MPH (12 knots; 6.2 m/s)
Visibility: 6 or more miles (10+ km)
Ceiling: at least 12,000 feet AGL
Clouds: few clouds at 3000 feet AGL
Weather: no significant weather observed at this time

METAR text: RJOT 272300Z 25011KT CAVOK 22/15 Q1006
Conditions at: RJOT (TAKAMATSU AIRPOR, JP) observed 2300 UTC 27 May 2022
Temperature: 22.0°C (72°F)
Dewpoint: 15.0°C (59°F) [RH = 65%]
Pressure (altimeter): 29.70 inches Hg (1006.0 mb)
Winds: from the WSW (250 degrees) at 13 MPH (11 knots; 5.7 m/s)
Visibility: 6 or more miles (10+ km)
Ceiling: ceiling and visibility are OK
Clouds: unknown
Weather: no significant weather observed at this time

METAR text: RJOT 272200Z 24010KT CAVOK 21/14 Q1006
Conditions at: RJOT (TAKAMATSU AIRPOR, JP) observed 2200 UTC 27 May 2022
Temperature: 21.0°C (70°F)
Dewpoint: 14.0°C (57°F) [RH = 64%]
Pressure (altimeter): 29.70 inches Hg (1006.0 mb)
Winds: from the WSW (240 degrees) at 12 MPH (10 knots; 5.1 m/s)
Visibility: 6 or more miles (10+ km)
Ceiling: ceiling and visibility are OK
Clouds: unknown
Weather: no significant weather observed at this time

METAR text: RJOT 272120Z 24009KT CAVOK 19/14 Q1005 RMK A2970
Conditions at: RJOT (TAKAMATSU AIRPOR, JP) observed 2120 UTC 27 May 2022
Temperature: 19.0°C (66°F)
Dewpoint: 14.0°C (57°F) [RH = 73%]
Pressure (altimeter): 29.68 inches Hg (1005.0 mb)
Winds: from the WSW (240 degrees) at 10 MPH (9 knots; 4.6 m/s)
Visibility: 6 or more miles (10+ km)
Ceiling: ceiling and visibility are OK
Clouds: unknown
Weather: no significant weather observed at this time

Forecast for: RJOT (TAKAMATSU AIRPOR, JP)
Text: TAF RJOT 282305Z 2900/3006 28006KT 9999 FEW035
Forecast period: 0000 to 0200 UTC 29 May 2022
Forecast type: FROM: standard forecast or significant change
Winds: from the W (280 degrees) at 7 MPH (6 knots; 3.1 m/s)
Visibility: 6 or more miles (10+ km)
Ceiling: at least 12,000 feet AGL
Clouds: few clouds at 3500 feet AGL
Weather: no significant weather forecast for this period
Text: BECMG 2902/2904 07007KT
Forecast period: 0200 to 0800 UTC 29 May 2022
Forecast type: BECOMING: Conditions expected to become as follows by 0400 UTC 29 May 2022
Winds: from the ENE (70 degrees) at 8 MPH (7 knots; 3.6 m/s)
Visibility: 6 or more miles (10+ km)
Ceiling: at least 12,000 feet AGL
Clouds: few clouds at 3500 feet AGL
Weather: no significant weather forecast for this period
Text: BECMG 2908/2910 20005KT
Forecast period: 0800 to 1500 UTC 29 May 2022
Forecast type: BECOMING: Conditions expected to become as follows by 1000 UTC 29 May 2022
Winds: from the SSW (200 degrees) at 6 MPH (5 knots; 2.6 m/s)
Visibility: 6 or more miles (10+ km)
Ceiling: at least 12,000 feet AGL
Clouds: few clouds at 3500 feet AGL
Weather: no significant weather forecast for this period
Text: BECMG 2915/2918 15006KT
Forecast period: 1500 UTC 29 May 2022 to 0600 UTC 30 May 2022
Forecast type: BECOMING: Conditions expected to become as follows by 1800 UTC 29 May 2022
Winds: from the SSE (150 degrees) at 7 MPH (6 knots; 3.1 m/s)
Visibility: 6 or more miles (10+ km)
Ceiling: at least 12,000 feet AGL
Clouds: few clouds at 3500 feet AGL
Weather: no significant weather forecast for this period